Strona główna
METAR-TAF:

METAR-TAF

Lotnisko :

Cranfield, Anglia

Szerokość geograficzna: 52-04N, Długość geograficzna: 000-37W, wysokość: 111 m

Aktualna obserwacja pogody

Raport powstał 28 minut temu, godzina 16:20 UTC
Wiatr 4 kt od zachodnio-północny zachód
Temperatura 7°C
Wilgotność 93%
Ciśnienie 1014 hPa
Widzialność 10 km lub więcej
Rozproszone chmury na wysokości 4300 ft

METAR: EGTC 251620Z 30004KT 9999 SCT043 07/06 Q1014

czas: 16:48 (16:48 UTC)

Prognoza

Raport powstał 2 godziny i 51 minut temu, godzina 13:57 UTC
Prognoza ważna od 25 godzina 15 UTC do 25 godzina 19 UTC
Wiatr 7 kt od północny zachód
Widzialność 10 km lub więcej
Rozproszone chmury na wysokości 1000 ft
Przejściowo
od 25 godzina 15 UTC do 25 godzina 17 UTC
Widzialność: 7000 m
Przerywane chmury na wysokości 800 ft
słaby deszcz, mżawka

TAF: EGTC 251357Z 2515/2519 32007KT 9999 SCT010 TEMPO 2515/2517 7000 -RADZ BKN008

Obserwacja i prognoza pogody dla ponad 4000 lotnisk (raport METAR i TAF).

Dostępne stacje oznaczono żółtymi i czerwonymi punktami na mapie.

Najedź kursorem aby zobaczyć nazwę stacji.

Kliknij aby zobaczyć obserwacje i prognozy pogody.

Aby zmienić mapę: kliknij na zielony przycisk z czarnym krzyżykiem, aby powiększyć; na zielony przycisk z myślnikiem, aby pomniejszyć; na zielone strzałki, aby przejść do map sąsiednich.


METAR-TAF: